This is the latest recevied weather packets stored in our database for station/object IZ6EGX-13. If no packets are shown the sender has not sent any weather packets the latest 1 day(s).
| Time | Temp. | Humidity | Pressure | Rain* | Wind** | Luminosity | Snow |
|---|---|---|---|---|---|---|---|
| 1777979789 | 17.78° C | 68% | 1015.7 hPa | 0 mm | 1.34 m/s, 96° | - | - |
| 1777979189 | 17.78° C | 70% | 1015.6 hPa | 0 mm | 1.34 m/s, 91° | - | - |
| 1777978589 | 17.78° C | 68% | 1015.5 hPa | 0 mm | 1.34 m/s, 108° | - | - |
| 1777977989 | 17.78° C | 68% | 1015.4 hPa | 0 mm | 1.34 m/s, 110° | - | - |
| 1777977389 | 18.33° C | 68% | 1015.5 hPa | 0 mm | 1.34 m/s, 89° | - | - |
| 1777976789 | 17.78° C | 73% | 1015.5 hPa | 0 mm | 0.89 m/s, 90° | - | - |
| 1777976189 | 17.22° C | 72% | 1015.6 hPa | 0 mm | 0.89 m/s, 86° | - | - |
| 1777975589 | 17.22° C | 71% | 1015.6 hPa | 0 mm | 0 m/s | - | - |
| 1777974989 | 17.22° C | 72% | 1015.6 hPa | 0 mm | 0 m/s | - | - |
| 1777974389 | 16.67° C | 77% | 1015.9 hPa | 0 mm | 0 m/s | - | - |
| 1777973789 | 16.11° C | 77% | 1015.9 hPa | 0 mm | 0 m/s | - | - |
| 1777973189 | 16.11° C | 74% | 1016 hPa | 0 mm | 0 m/s | - | - |
| 1777972589 | 16.11° C | 75% | 1016.1 hPa | 0 mm | 0 m/s | - | - |
| 1777971989 | 15.56° C | 75% | 1016.2 hPa | 0 mm | 0 m/s | - | - |
| 1777971389 | 15.56° C | 75% | 1016.1 hPa | 0 mm | 0 m/s | - | - |
| 1777970789 | 15.56° C | 77% | 1015.9 hPa | 0 mm | 0 m/s | - | - |
| 1777970189 | 15.56° C | 76% | 1016 hPa | 0 mm | 0 m/s | - | - |
| 1777969589 | 15.56° C | 76% | 1016 hPa | 0 mm | 0 m/s | - | - |
| 1777968988 | 15.56° C | 75% | 1016 hPa | 0 mm | 0 m/s | - | - |
| 1777968389 | 15° C | 74% | 1016 hPa | 0 mm | 0.45 m/s, 303° | - | - |
| 1777967789 | 15° C | 79% | 1016.2 hPa | 0.25 mm | 0 m/s | - | - |
| 1777967189 | 15° C | 81% | 1016.3 hPa | 0 mm | 0 m/s | - | - |
| 1777966589 | 15° C | 81% | 1016.3 hPa | 0 mm | 0 m/s | - | - |
| 1777965989 | 15° C | 78% | 1016.1 hPa | 0 mm | 0 m/s | - | - |
| 1777965388 | 15° C | 77% | 1016.1 hPa | 0 mm | 0 m/s | - | - |
* Rain latest hour (hover to see other rain measurements)
** Current wind speed in m/s (hover to see current wind gust speed)